sensor_id;sensor_type;location;lat;lon;timestamp;P1;durP1;ratioP1;P2;durP2;ratioP2
72205;SDS011;60111;48.286;7.812;2023-10-08T00:01:29;8.98;;;5.47;;
72205;SDS011;60111;48.286;7.812;2023-10-08T00:06:36;9.43;;;5.17;;
72205;SDS011;60111;48.286;7.812;2023-10-08T00:09:09;7.80;;;4.92;;
72205;SDS011;60111;48.286;7.812;2023-10-08T00:11:42;8.78;;;4.72;;
72205;SDS011;60111;48.286;7.812;2023-10-08T00:14:15;6.42;;;4.40;;
72205;SDS011;60111;48.286;7.812;2023-10-08T00:16:49;8.08;;;4.80;;
72205;SDS011;60111;48.286;7.812;2023-10-08T00:19:22;9.33;;;4.80;;
72205;SDS011;60111;48.286;7.812;2023-10-08T00:21:55;8.65;;;4.58;;
72205;SDS011;60111;48.286;7.812;2023-10-08T00:24:29;9.70;;;5.20;;
72205;SDS011;60111;48.286;7.812;2023-10-08T00:27:04;8.75;;;4.15;;
72205;SDS011;60111;48.286;7.812;2023-10-08T00:29:37;8.17;;;4.93;;
72205;SDS011;60111;48.286;7.812;2023-10-08T00:32:10;6.27;;;4.33;;
72205;SDS011;60111;48.286;7.812;2023-10-08T00:34:43;12.18;;;4.92;;
72205;SDS011;60111;48.286;7.812;2023-10-08T00:37:17;8.07;;;4.80;;
72205;SDS011;60111;48.286;7.812;2023-10-08T00:39:51;8.23;;;4.08;;
72205;SDS011;60111;48.286;7.812;2023-10-08T00:42:25;7.05;;;4.30;;
72205;SDS011;60111;48.286;7.812;2023-10-08T00:44:59;9.90;;;4.40;;
72205;SDS011;60111;48.286;7.812;2023-10-08T00:47:33;8.35;;;4.50;;
72205;SDS011;60111;48.286;7.812;2023-10-08T00:50:08;6.77;;;3.93;;
72205;SDS011;60111;48.286;7.812;2023-10-08T00:52:46;11.85;;;4.25;;
72205;SDS011;60111;48.286;7.812;2023-10-08T00:55:31;6.55;;;3.47;;
72205;SDS011;60111;48.286;7.812;2023-10-08T00:58:05;7.85;;;3.85;;
72205;SDS011;60111;48.286;7.812;2023-10-08T01:00:42;6.87;;;4.03;;
72205;SDS011;60111;48.286;7.812;2023-10-08T01:03:16;8.08;;;4.10;;
72205;SDS011;60111;48.286;7.812;2023-10-08T01:05:50;8.03;;;4.10;;
72205;SDS011;60111;48.286;7.812;2023-10-08T01:08:23;8.30;;;4.00;;
72205;SDS011;60111;48.286;7.812;2023-10-08T01:11:16;8.48;;;3.50;;
72205;SDS011;60111;48.286;7.812;2023-10-08T01:13:50;5.83;;;3.60;;
72205;SDS011;60111;48.286;7.812;2023-10-08T01:16:25;7.75;;;3.58;;
72205;SDS011;60111;48.286;7.812;2023-10-08T01:18:58;6.80;;;3.80;;
72205;SDS011;60111;48.286;7.812;2023-10-08T01:21:31;5.50;;;3.50;;
72205;SDS011;60111;48.286;7.812;2023-10-08T01:24:08;5.20;;;3.40;;
72205;SDS011;60111;48.286;7.812;2023-10-08T01:26:42;7.45;;;3.60;;
72205;SDS011;60111;48.286;7.812;2023-10-08T01:29:16;7.87;;;4.10;;
72205;SDS011;60111;48.286;7.812;2023-10-08T01:31:51;6.65;;;3.25;;
72205;SDS011;60111;48.286;7.812;2023-10-08T01:34:24;5.40;;;3.47;;
72205;SDS011;60111;48.286;7.812;2023-10-08T01:37:01;6.83;;;3.98;;
72205;SDS011;60111;48.286;7.812;2023-10-08T01:39:36;6.10;;;3.20;;
72205;SDS011;60111;48.286;7.812;2023-10-08T01:42:15;6.25;;;4.10;;
72205;SDS011;60111;48.286;7.812;2023-10-08T01:44:48;9.85;;;3.98;;
72205;SDS011;60111;48.286;7.812;2023-10-08T01:47:25;6.22;;;4.03;;
72205;SDS011;60111;48.286;7.812;2023-10-08T01:49:58;8.38;;;4.15;;
72205;SDS011;60111;48.286;7.812;2023-10-08T01:52:32;6.60;;;4.20;;
72205;SDS011;60111;48.286;7.812;2023-10-08T01:55:06;6.42;;;4.42;;
72205;SDS011;60111;48.286;7.812;2023-10-08T01:57:40;9.78;;;4.25;;
72205;SDS011;60111;48.286;7.812;2023-10-08T02:00:14;9.30;;;4.15;;
72205;SDS011;60111;48.286;7.812;2023-10-08T02:02:50;6.70;;;4.17;;
72205;SDS011;60111;48.286;7.812;2023-10-08T02:05:25;6.63;;;4.00;;
72205;SDS011;60111;48.286;7.812;2023-10-08T02:07:57;7.65;;;4.33;;
72205;SDS011;60111;48.286;7.812;2023-10-08T02:10:30;9.18;;;4.30;;
72205;SDS011;60111;48.286;7.812;2023-10-08T02:15:36;6.47;;;3.70;;
72205;SDS011;60111;48.286;7.812;2023-10-08T02:18:15;7.67;;;4.45;;
72205;SDS011;60111;48.286;7.812;2023-10-08T02:20:48;9.18;;;4.20;;
72205;SDS011;60111;48.286;7.812;2023-10-08T02:23:21;6.00;;;3.90;;
72205;SDS011;60111;48.286;7.812;2023-10-08T02:25:53;7.17;;;3.98;;
72205;SDS011;60111;48.286;7.812;2023-10-08T02:28:26;7.33;;;4.10;;
72205;SDS011;60111;48.286;7.812;2023-10-08T02:30:59;5.72;;;3.65;;
72205;SDS011;60111;48.286;7.812;2023-10-08T02:33:32;6.12;;;3.60;;
72205;SDS011;60111;48.286;7.812;2023-10-08T02:36:05;7.50;;;3.70;;
72205;SDS011;60111;48.286;7.812;2023-10-08T02:38:38;6.67;;;3.70;;
72205;SDS011;60111;48.286;7.812;2023-10-08T02:41:15;7.95;;;4.10;;
72205;SDS011;60111;48.286;7.812;2023-10-08T02:43:46;8.73;;;3.90;;
72205;SDS011;60111;48.286;7.812;2023-10-08T02:46:19;6.97;;;3.60;;
72205;SDS011;60111;48.286;7.812;2023-10-08T02:48:53;7.80;;;4.17;;
72205;SDS011;60111;48.286;7.812;2023-10-08T02:51:25;8.88;;;4.33;;
72205;SDS011;60111;48.286;7.812;2023-10-08T02:53:59;7.10;;;3.83;;
72205;SDS011;60111;48.286;7.812;2023-10-08T02:56:34;6.35;;;4.12;;
72205;SDS011;60111;48.286;7.812;2023-10-08T02:59:06;6.50;;;3.92;;
72205;SDS011;60111;48.286;7.812;2023-10-08T03:01:40;6.03;;;3.83;;
72205;SDS011;60111;48.286;7.812;2023-10-08T03:04:12;5.42;;;3.42;;
72205;SDS011;60111;48.286;7.812;2023-10-08T03:06:51;9.57;;;3.80;;
72205;SDS011;60111;48.286;7.812;2023-10-08T03:09:24;7.40;;;3.58;;
72205;SDS011;60111;48.286;7.812;2023-10-08T03:11:58;8.13;;;3.73;;
72205;SDS011;60111;48.286;7.812;2023-10-08T03:14:30;5.75;;;3.60;;
72205;SDS011;60111;48.286;7.812;2023-10-08T03:17:05;7.85;;;3.30;;
72205;SDS011;60111;48.286;7.812;2023-10-08T03:19:38;7.93;;;3.97;;
72205;SDS011;60111;48.286;7.812;2023-10-08T03:24:46;7.45;;;3.75;;
72205;SDS011;60111;48.286;7.812;2023-10-08T03:27:19;9.53;;;3.67;;
72205;SDS011;60111;48.286;7.812;2023-10-08T03:29:53;10.35;;;4.22;;
72205;SDS011;60111;48.286;7.812;2023-10-08T03:32:28;6.33;;;3.60;;
72205;SDS011;60111;48.286;7.812;2023-10-08T03:35:02;9.35;;;3.85;;
72205;SDS011;60111;48.286;7.812;2023-10-08T03:37:35;8.33;;;3.70;;
72205;SDS011;60111;48.286;7.812;2023-10-08T03:40:10;9.63;;;4.10;;
72205;SDS011;60111;48.286;7.812;2023-10-08T03:43:00;4.70;;;3.40;;
72205;SDS011;60111;48.286;7.812;2023-10-08T03:45:33;7.85;;;3.92;;
72205;SDS011;60111;48.286;7.812;2023-10-08T03:48:24;7.58;;;3.67;;
72205;SDS011;60111;48.286;7.812;2023-10-08T03:50:57;6.90;;;4.00;;
72205;SDS011;60111;48.286;7.812;2023-10-08T03:53:31;7.70;;;4.12;;
72205;SDS011;60111;48.286;7.812;2023-10-08T03:56:09;7.80;;;3.77;;
72205;SDS011;60111;48.286;7.812;2023-10-08T03:58:43;7.60;;;3.65;;
72205;SDS011;60111;48.286;7.812;2023-10-08T04:03:50;7.20;;;3.83;;
72205;SDS011;60111;48.286;7.812;2023-10-08T04:06:29;5.60;;;3.62;;
72205;SDS011;60111;48.286;7.812;2023-10-08T04:09:02;7.47;;;4.20;;
72205;SDS011;60111;48.286;7.812;2023-10-08T04:11:42;7.25;;;3.60;;
72205;SDS011;60111;48.286;7.812;2023-10-08T04:14:18;6.30;;;3.80;;
72205;SDS011;60111;48.286;7.812;2023-10-08T04:16:54;7.80;;;4.08;;
72205;SDS011;60111;48.286;7.812;2023-10-08T04:19:26;7.93;;;3.60;;
72205;SDS011;60111;48.286;7.812;2023-10-08T04:21:59;4.90;;;3.10;;
72205;SDS011;60111;48.286;7.812;2023-10-08T04:24:32;5.95;;;3.02;;
72205;SDS011;60111;48.286;7.812;2023-10-08T04:27:07;5.40;;;2.87;;
72205;SDS011;60111;48.286;7.812;2023-10-08T04:29:40;7.03;;;3.27;;
72205;SDS011;60111;48.286;7.812;2023-10-08T04:32:13;6.00;;;3.30;;
72205;SDS011;60111;48.286;7.812;2023-10-08T04:34:47;5.17;;;3.37;;
72205;SDS011;60111;48.286;7.812;2023-10-08T04:37:20;6.50;;;3.07;;
72205;SDS011;60111;48.286;7.812;2023-10-08T04:39:53;9.58;;;3.50;;
72205;SDS011;60111;48.286;7.812;2023-10-08T04:44:59;5.28;;;2.90;;
72205;SDS011;60111;48.286;7.812;2023-10-08T04:47:33;5.47;;;3.50;;
72205;SDS011;60111;48.286;7.812;2023-10-08T04:50:06;4.67;;;3.17;;
72205;SDS011;60111;48.286;7.812;2023-10-08T04:52:42;5.40;;;3.17;;
72205;SDS011;60111;48.286;7.812;2023-10-08T04:55:19;7.22;;;3.52;;
72205;SDS011;60111;48.286;7.812;2023-10-08T05:00:26;8.70;;;3.85;;
72205;SDS011;60111;48.286;7.812;2023-10-08T05:03:15;6.87;;;3.50;;
72205;SDS011;60111;48.286;7.812;2023-10-08T05:08:23;8.10;;;3.67;;
72205;SDS011;60111;48.286;7.812;2023-10-08T05:11:06;7.92;;;3.35;;
72205;SDS011;60111;48.286;7.812;2023-10-08T05:13:58;7.77;;;3.90;;
72205;SDS011;60111;48.286;7.812;2023-10-08T05:16:35;6.78;;;3.85;;
72205;SDS011;60111;48.286;7.812;2023-10-08T05:19:09;7.72;;;3.67;;
72205;SDS011;60111;48.286;7.812;2023-10-08T05:21:47;6.80;;;3.85;;
72205;SDS011;60111;48.286;7.812;2023-10-08T05:24:24;5.97;;;3.83;;
72205;SDS011;60111;48.286;7.812;2023-10-08T05:26:58;6.75;;;3.80;;
72205;SDS011;60111;48.286;7.812;2023-10-08T05:29:32;7.67;;;3.58;;
72205;SDS011;60111;48.286;7.812;2023-10-08T05:32:12;9.70;;;3.75;;
72205;SDS011;60111;48.286;7.812;2023-10-08T05:35:03;7.15;;;3.30;;
72205;SDS011;60111;48.286;7.812;2023-10-08T05:37:54;6.47;;;3.60;;
72205;SDS011;60111;48.286;7.812;2023-10-08T05:40:31;5.25;;;3.20;;
72205;SDS011;60111;48.286;7.812;2023-10-08T05:43:25;5.70;;;3.20;;
72205;SDS011;60111;48.286;7.812;2023-10-08T05:46:14;7.30;;;3.35;;
72205;SDS011;60111;48.286;7.812;2023-10-08T05:51:35;7.03;;;3.72;;
72205;SDS011;60111;48.286;7.812;2023-10-08T05:54:20;7.08;;;3.50;;
72205;SDS011;60111;48.286;7.812;2023-10-08T05:57:02;9.15;;;3.40;;
72205;SDS011;60111;48.286;7.812;2023-10-08T05:59:41;12.98;;;3.77;;
72205;SDS011;60111;48.286;7.812;2023-10-08T06:02:26;10.40;;;4.27;;
72205;SDS011;60111;48.286;7.812;2023-10-08T06:05:14;10.25;;;4.37;;
72205;SDS011;60111;48.286;7.812;2023-10-08T06:07:58;7.92;;;3.67;;
72205;SDS011;60111;48.286;7.812;2023-10-08T06:13:06;9.48;;;4.53;;
72205;SDS011;60111;48.286;7.812;2023-10-08T06:15:43;10.48;;;4.62;;
72205;SDS011;60111;48.286;7.812;2023-10-08T06:18:28;8.78;;;4.40;;
72205;SDS011;60111;48.286;7.812;2023-10-08T06:21:03;8.45;;;3.58;;
72205;SDS011;60111;48.286;7.812;2023-10-08T06:23:40;8.98;;;4.15;;
72205;SDS011;60111;48.286;7.812;2023-10-08T06:26:17;9.17;;;4.00;;
72205;SDS011;60111;48.286;7.812;2023-10-08T06:31:24;7.20;;;3.87;;
72205;SDS011;60111;48.286;7.812;2023-10-08T06:33:58;6.57;;;3.23;;
72205;SDS011;60111;48.286;7.812;2023-10-08T06:36:32;5.95;;;3.62;;
72205;SDS011;60111;48.286;7.812;2023-10-08T06:39:05;7.72;;;3.50;;
72205;SDS011;60111;48.286;7.812;2023-10-08T06:41:39;10.80;;;3.95;;
72205;SDS011;60111;48.286;7.812;2023-10-08T06:44:13;7.53;;;4.03;;
72205;SDS011;60111;48.286;7.812;2023-10-08T06:46:46;8.20;;;3.62;;
72205;SDS011;60111;48.286;7.812;2023-10-08T06:49:19;6.50;;;3.62;;
72205;SDS011;60111;48.286;7.812;2023-10-08T06:51:54;6.58;;;3.85;;
72205;SDS011;60111;48.286;7.812;2023-10-08T06:54:26;7.53;;;3.58;;
72205;SDS011;60111;48.286;7.812;2023-10-08T06:57:01;6.55;;;3.58;;
72205;SDS011;60111;48.286;7.812;2023-10-08T06:59:33;8.00;;;3.50;;
72205;SDS011;60111;48.286;7.812;2023-10-08T07:02:08;7.10;;;3.50;;
72205;SDS011;60111;48.286;7.812;2023-10-08T07:04:41;6.10;;;3.47;;
72205;SDS011;60111;48.286;7.812;2023-10-08T07:07:15;5.17;;;3.00;;
72205;SDS011;60111;48.286;7.812;2023-10-08T07:09:49;5.53;;;3.47;;
72205;SDS011;60111;48.286;7.812;2023-10-08T07:12:24;5.97;;;3.33;;
72205;SDS011;60111;48.286;7.812;2023-10-08T07:14:57;6.50;;;3.52;;
72205;SDS011;60111;48.286;7.812;2023-10-08T07:17:32;6.85;;;4.25;;
72205;SDS011;60111;48.286;7.812;2023-10-08T07:20:06;7.03;;;3.93;;
72205;SDS011;60111;48.286;7.812;2023-10-08T07:25:14;7.08;;;3.67;;
72205;SDS011;60111;48.286;7.812;2023-10-08T07:27:48;10.65;;;4.50;;
72205;SDS011;60111;48.286;7.812;2023-10-08T07:30:21;8.60;;;4.10;;
72205;SDS011;60111;48.286;7.812;2023-10-08T07:32:55;5.77;;;4.00;;
72205;SDS011;60111;48.286;7.812;2023-10-08T07:35:29;7.03;;;4.13;;
72205;SDS011;60111;48.286;7.812;2023-10-08T07:38:03;7.50;;;3.90;;
72205;SDS011;60111;48.286;7.812;2023-10-08T07:40:37;8.35;;;4.30;;
72205;SDS011;60111;48.286;7.812;2023-10-08T07:43:10;8.13;;;4.12;;
72205;SDS011;60111;48.286;7.812;2023-10-08T07:45:43;7.43;;;3.80;;
72205;SDS011;60111;48.286;7.812;2023-10-08T07:48:16;5.77;;;3.67;;
72205;SDS011;60111;48.286;7.812;2023-10-08T07:50:49;8.85;;;4.22;;
72205;SDS011;60111;48.286;7.812;2023-10-08T07:53:21;9.05;;;4.00;;
72205;SDS011;60111;48.286;7.812;2023-10-08T07:55:55;9.07;;;4.23;;
72205;SDS011;60111;48.286;7.812;2023-10-08T07:58:28;10.35;;;4.22;;
72205;SDS011;60111;48.286;7.812;2023-10-08T08:01:02;11.10;;;4.37;;
72205;SDS011;60111;48.286;7.812;2023-10-08T08:03:36;7.60;;;3.77;;
72205;SDS011;60111;48.286;7.812;2023-10-08T08:06:09;6.70;;;4.20;;
72205;SDS011;60111;48.286;7.812;2023-10-08T08:08:42;7.50;;;4.22;;
72205;SDS011;60111;48.286;7.812;2023-10-08T08:11:15;7.33;;;4.20;;
72205;SDS011;60111;48.286;7.812;2023-10-08T08:13:49;8.85;;;4.03;;
72205;SDS011;60111;48.286;7.812;2023-10-08T08:16:21;10.15;;;4.00;;
72205;SDS011;60111;48.286;7.812;2023-10-08T08:18:56;8.90;;;4.50;;
72205;SDS011;60111;48.286;7.812;2023-10-08T08:21:30;9.70;;;4.05;;
72205;SDS011;60111;48.286;7.812;2023-10-08T08:24:03;6.45;;;4.00;;
72205;SDS011;60111;48.286;7.812;2023-10-08T08:26:38;7.35;;;3.95;;
72205;SDS011;60111;48.286;7.812;2023-10-08T08:29:13;7.70;;;3.77;;
72205;SDS011;60111;48.286;7.812;2023-10-08T08:31:46;7.70;;;3.50;;
72205;SDS011;60111;48.286;7.812;2023-10-08T08:34:20;6.70;;;4.12;;
72205;SDS011;60111;48.286;7.812;2023-10-08T08:36:52;7.28;;;3.62;;
72205;SDS011;60111;48.286;7.812;2023-10-08T08:39:25;8.63;;;3.65;;
72205;SDS011;60111;48.286;7.812;2023-10-08T08:42:03;7.90;;;4.20;;
72205;SDS011;60111;48.286;7.812;2023-10-08T08:44:36;7.30;;;3.83;;
72205;SDS011;60111;48.286;7.812;2023-10-08T08:47:21;5.47;;;3.33;;
72205;SDS011;60111;48.286;7.812;2023-10-08T08:49:56;7.50;;;3.77;;
72205;SDS011;60111;48.286;7.812;2023-10-08T08:52:32;7.28;;;3.50;;
72205;SDS011;60111;48.286;7.812;2023-10-08T08:55:05;9.83;;;4.37;;
72205;SDS011;60111;48.286;7.812;2023-10-08T08:57:44;10.08;;;4.72;;
72205;SDS011;60111;48.286;7.812;2023-10-08T09:00:19;8.45;;;4.15;;
72205;SDS011;60111;48.286;7.812;2023-10-08T09:02:52;6.57;;;3.60;;
72205;SDS011;60111;48.286;7.812;2023-10-08T09:08:00;11.88;;;4.55;;
72205;SDS011;60111;48.286;7.812;2023-10-08T09:10:37;10.15;;;4.12;;
72205;SDS011;60111;48.286;7.812;2023-10-08T09:13:11;7.50;;;3.90;;
72205;SDS011;60111;48.286;7.812;2023-10-08T09:15:44;11.48;;;4.15;;
72205;SDS011;60111;48.286;7.812;2023-10-08T09:18:17;11.83;;;4.20;;
72205;SDS011;60111;48.286;7.812;2023-10-08T09:20:52;7.15;;;3.77;;
72205;SDS011;60111;48.286;7.812;2023-10-08T09:23:26;9.47;;;4.20;;
72205;SDS011;60111;48.286;7.812;2023-10-08T09:25:59;12.80;;;3.92;;
72205;SDS011;60111;48.286;7.812;2023-10-08T09:28:33;8.38;;;4.15;;
72205;SDS011;60111;48.286;7.812;2023-10-08T09:31:10;10.07;;;4.23;;
72205;SDS011;60111;48.286;7.812;2023-10-08T09:33:52;10.30;;;4.20;;
72205;SDS011;60111;48.286;7.812;2023-10-08T09:36:27;12.17;;;4.23;;
72205;SDS011;60111;48.286;7.812;2023-10-08T09:39:04;10.40;;;4.78;;
72205;SDS011;60111;48.286;7.812;2023-10-08T09:41:37;14.23;;;4.20;;
72205;SDS011;60111;48.286;7.812;2023-10-08T09:44:12;9.40;;;4.62;;
72205;SDS011;60111;48.286;7.812;2023-10-08T09:46:47;10.20;;;4.33;;
72205;SDS011;60111;48.286;7.812;2023-10-08T09:49:24;11.78;;;4.62;;
72205;SDS011;60111;48.286;7.812;2023-10-08T09:51:56;8.80;;;4.00;;
72205;SDS011;60111;48.286;7.812;2023-10-08T09:57:34;10.82;;;4.00;;
72205;SDS011;60111;48.286;7.812;2023-10-08T10:00:07;10.23;;;3.90;;
72205;SDS011;60111;48.286;7.812;2023-10-08T10:02:45;10.10;;;3.92;;
72205;SDS011;60111;48.286;7.812;2023-10-08T10:05:21;8.33;;;3.57;;
72205;SDS011;60111;48.286;7.812;2023-10-08T10:07:55;10.93;;;4.17;;
72205;SDS011;60111;48.286;7.812;2023-10-08T10:10:28;6.97;;;3.50;;
72205;SDS011;60111;48.286;7.812;2023-10-08T10:15:44;13.45;;;4.00;;
72205;SDS011;60111;48.286;7.812;2023-10-08T10:23:46;10.35;;;3.65;;
72205;SDS011;60111;48.286;7.812;2023-10-08T10:26:25;7.83;;;3.77;;
72205;SDS011;60111;48.286;7.812;2023-10-08T10:31:51;10.10;;;4.15;;
72205;SDS011;60111;48.286;7.812;2023-10-08T10:34:27;9.85;;;3.77;;
72205;SDS011;60111;48.286;7.812;2023-10-08T10:39:55;9.48;;;4.28;;
72205;SDS011;60111;48.286;7.812;2023-10-08T10:42:33;8.90;;;4.17;;
72205;SDS011;60111;48.286;7.812;2023-10-08T10:45:07;10.03;;;4.00;;
72205;SDS011;60111;48.286;7.812;2023-10-08T10:47:52;9.05;;;3.92;;
72205;SDS011;60111;48.286;7.812;2023-10-08T10:50:25;7.45;;;3.75;;
72205;SDS011;60111;48.286;7.812;2023-10-08T10:52:59;5.70;;;3.58;;
72205;SDS011;60111;48.286;7.812;2023-10-08T10:55:33;9.95;;;4.17;;
72205;SDS011;60111;48.286;7.812;2023-10-08T11:00:42;6.63;;;3.57;;
72205;SDS011;60111;48.286;7.812;2023-10-08T11:03:17;5.67;;;3.27;;
72205;SDS011;60111;48.286;7.812;2023-10-08T11:05:52;7.78;;;3.67;;
72205;SDS011;60111;48.286;7.812;2023-10-08T11:08:31;8.40;;;3.50;;
72205;SDS011;60111;48.286;7.812;2023-10-08T11:11:07;11.03;;;3.70;;
72205;SDS011;60111;48.286;7.812;2023-10-08T11:13:41;8.27;;;3.90;;
72205;SDS011;60111;48.286;7.812;2023-10-08T11:16:13;10.40;;;4.20;;
72205;SDS011;60111;48.286;7.812;2023-10-08T11:18:46;13.70;;;4.03;;
72205;SDS011;60111;48.286;7.812;2023-10-08T11:21:20;7.00;;;3.65;;
72205;SDS011;60111;48.286;7.812;2023-10-08T11:23:56;5.75;;;3.65;;
72205;SDS011;60111;48.286;7.812;2023-10-08T11:29:09;11.03;;;3.87;;
72205;SDS011;60111;48.286;7.812;2023-10-08T11:31:44;9.50;;;4.08;;
72205;SDS011;60111;48.286;7.812;2023-10-08T11:34:17;13.70;;;4.17;;
72205;SDS011;60111;48.286;7.812;2023-10-08T11:36:55;12.40;;;4.00;;
72205;SDS011;60111;48.286;7.812;2023-10-08T11:39:27;13.58;;;3.92;;
72205;SDS011;60111;48.286;7.812;2023-10-08T11:44:34;11.18;;;3.85;;
72205;SDS011;60111;48.286;7.812;2023-10-08T11:47:07;9.37;;;4.00;;
72205;SDS011;60111;48.286;7.812;2023-10-08T11:49:43;9.97;;;4.47;;
72205;SDS011;60111;48.286;7.812;2023-10-08T11:52:20;7.33;;;4.23;;
72205;SDS011;60111;48.286;7.812;2023-10-08T11:54:52;11.97;;;3.80;;
72205;SDS011;60111;48.286;7.812;2023-10-08T11:57:25;8.93;;;3.60;;
72205;SDS011;60111;48.286;7.812;2023-10-08T11:59:58;8.78;;;4.28;;
72205;SDS011;60111;48.286;7.812;2023-10-08T12:02:30;13.28;;;4.55;;
72205;SDS011;60111;48.286;7.812;2023-10-08T12:05:05;9.55;;;3.87;;
72205;SDS011;60111;48.286;7.812;2023-10-08T12:07:38;9.95;;;3.95;;
72205;SDS011;60111;48.286;7.812;2023-10-08T12:10:10;10.13;;;4.15;;
72205;SDS011;60111;48.286;7.812;2023-10-08T12:12:44;16.40;;;4.47;;
72205;SDS011;60111;48.286;7.812;2023-10-08T12:15:16;12.18;;;4.00;;
72205;SDS011;60111;48.286;7.812;2023-10-08T12:17:50;14.75;;;4.17;;
72205;SDS011;60111;48.286;7.812;2023-10-08T12:20:41;11.83;;;4.25;;
72205;SDS011;60111;48.286;7.812;2023-10-08T12:23:16;8.95;;;3.75;;
72205;SDS011;60111;48.286;7.812;2023-10-08T12:25:57;11.60;;;4.67;;
72205;SDS011;60111;48.286;7.812;2023-10-08T12:28:30;12.03;;;4.13;;
72205;SDS011;60111;48.286;7.812;2023-10-08T12:31:04;11.33;;;4.25;;
72205;SDS011;60111;48.286;7.812;2023-10-08T12:33:37;11.38;;;4.20;;
72205;SDS011;60111;48.286;7.812;2023-10-08T12:36:11;12.80;;;4.37;;
72205;SDS011;60111;48.286;7.812;2023-10-08T12:38:43;14.60;;;4.30;;
72205;SDS011;60111;48.286;7.812;2023-10-08T12:41:18;11.55;;;4.65;;
72205;SDS011;60111;48.286;7.812;2023-10-08T12:43:50;12.78;;;4.47;;
72205;SDS011;60111;48.286;7.812;2023-10-08T12:46:25;11.43;;;4.28;;
72205;SDS011;60111;48.286;7.812;2023-10-08T12:49:00;9.20;;;4.03;;
72205;SDS011;60111;48.286;7.812;2023-10-08T12:51:33;11.68;;;4.30;;
72205;SDS011;60111;48.286;7.812;2023-10-08T12:54:06;12.23;;;4.45;;
72205;SDS011;60111;48.286;7.812;2023-10-08T12:56:40;13.45;;;4.42;;
72205;SDS011;60111;48.286;7.812;2023-10-08T12:59:23;12.40;;;4.20;;
72205;SDS011;60111;48.286;7.812;2023-10-08T13:01:56;9.60;;;3.80;;
72205;SDS011;60111;48.286;7.812;2023-10-08T13:04:31;14.18;;;4.15;;
72205;SDS011;60111;48.286;7.812;2023-10-08T13:07:05;15.55;;;4.72;;
72205;SDS011;60111;48.286;7.812;2023-10-08T13:09:38;12.80;;;4.50;;
72205;SDS011;60111;48.286;7.812;2023-10-08T13:12:10;9.03;;;4.05;;
72205;SDS011;60111;48.286;7.812;2023-10-08T13:14:44;11.43;;;4.15;;
72205;SDS011;60111;48.286;7.812;2023-10-08T13:17:17;15.20;;;4.55;;
72205;SDS011;60111;48.286;7.812;2023-10-08T13:19:50;15.95;;;4.42;;
72205;SDS011;60111;48.286;7.812;2023-10-08T13:22:23;13.65;;;4.50;;
72205;SDS011;60111;48.286;7.812;2023-10-08T13:24:57;13.77;;;4.67;;
72205;SDS011;60111;48.286;7.812;2023-10-08T13:27:32;10.93;;;3.98;;
72205;SDS011;60111;48.286;7.812;2023-10-08T13:30:05;16.63;;;4.50;;
72205;SDS011;60111;48.286;7.812;2023-10-08T13:32:40;15.10;;;5.03;;
72205;SDS011;60111;48.286;7.812;2023-10-08T13:35:16;17.10;;;4.83;;
72205;SDS011;60111;48.286;7.812;2023-10-08T13:37:49;16.15;;;4.42;;
72205;SDS011;60111;48.286;7.812;2023-10-08T13:40:21;14.45;;;4.35;;
72205;SDS011;60111;48.286;7.812;2023-10-08T13:42:55;10.70;;;4.43;;
72205;SDS011;60111;48.286;7.812;2023-10-08T13:45:28;14.60;;;4.62;;
72205;SDS011;60111;48.286;7.812;2023-10-08T13:48:03;21.03;;;4.40;;
72205;SDS011;60111;48.286;7.812;2023-10-08T13:50:36;13.32;;;4.45;;
72205;SDS011;60111;48.286;7.812;2023-10-08T13:53:08;16.48;;;4.50;;
72205;SDS011;60111;48.286;7.812;2023-10-08T13:55:41;14.93;;;4.33;;
72205;SDS011;60111;48.286;7.812;2023-10-08T13:58:15;23.93;;;5.37;;
72205;SDS011;60111;48.286;7.812;2023-10-08T14:00:48;18.55;;;4.97;;
72205;SDS011;60111;48.286;7.812;2023-10-08T14:03:22;15.08;;;5.15;;
72205;SDS011;60111;48.286;7.812;2023-10-08T14:05:55;19.77;;;4.90;;
72205;SDS011;60111;48.286;7.812;2023-10-08T14:08:31;22.22;;;5.10;;
72205;SDS011;60111;48.286;7.812;2023-10-08T14:11:03;15.55;;;5.17;;
72205;SDS011;60111;48.286;7.812;2023-10-08T14:13:36;19.48;;;5.00;;
72205;SDS011;60111;48.286;7.812;2023-10-08T14:16:09;20.00;;;4.60;;
72205;SDS011;60111;48.286;7.812;2023-10-08T14:18:42;22.07;;;5.80;;
72205;SDS011;60111;48.286;7.812;2023-10-08T14:21:16;21.85;;;5.00;;
72205;SDS011;60111;48.286;7.812;2023-10-08T14:23:55;20.52;;;5.47;;
72205;SDS011;60111;48.286;7.812;2023-10-08T14:26:23;14.43;;;4.10;;
72205;SDS011;60111;48.286;7.812;2023-10-08T14:28:56;14.13;;;5.03;;
72205;SDS011;60111;48.286;7.812;2023-10-08T14:31:30;16.95;;;4.95;;
72205;SDS011;60111;48.286;7.812;2023-10-08T14:36:38;13.68;;;4.62;;
72205;SDS011;60111;48.286;7.812;2023-10-08T14:39:29;15.13;;;4.70;;
72205;SDS011;60111;48.286;7.812;2023-10-08T14:42:20;12.45;;;4.20;;
72205;SDS011;60111;48.286;7.812;2023-10-08T14:45:11;17.17;;;4.55;;
72205;SDS011;60111;48.286;7.812;2023-10-08T14:47:44;16.60;;;4.70;;
72205;SDS011;60111;48.286;7.812;2023-10-08T14:50:16;10.25;;;4.35;;
72205;SDS011;60111;48.286;7.812;2023-10-08T14:52:49;17.67;;;4.90;;
72205;SDS011;60111;48.286;7.812;2023-10-08T14:55:22;19.52;;;4.50;;
72205;SDS011;60111;48.286;7.812;2023-10-08T14:57:56;14.50;;;3.97;;
72205;SDS011;60111;48.286;7.812;2023-10-08T15:00:29;17.57;;;4.97;;
72205;SDS011;60111;48.286;7.812;2023-10-08T15:03:02;20.63;;;4.60;;
72205;SDS011;60111;48.286;7.812;2023-10-08T15:05:35;23.00;;;4.77;;
72205;SDS011;60111;48.286;7.812;2023-10-08T15:08:08;15.50;;;4.67;;
72205;SDS011;60111;48.286;7.812;2023-10-08T15:10:41;21.05;;;5.28;;
72205;SDS011;60111;48.286;7.812;2023-10-08T15:13:14;18.60;;;5.10;;
72205;SDS011;60111;48.286;7.812;2023-10-08T15:15:46;25.23;;;5.62;;
72205;SDS011;60111;48.286;7.812;2023-10-08T15:18:20;24.67;;;5.47;;
72205;SDS011;60111;48.286;7.812;2023-10-08T15:20:53;19.92;;;5.28;;
72205;SDS011;60111;48.286;7.812;2023-10-08T15:23:26;21.02;;;4.80;;
72205;SDS011;60111;48.286;7.812;2023-10-08T15:25:59;21.50;;;4.60;;
72205;SDS011;60111;48.286;7.812;2023-10-08T15:28:31;20.32;;;5.45;;
72205;SDS011;60111;48.286;7.812;2023-10-08T15:31:04;16.82;;;4.85;;
72205;SDS011;60111;48.286;7.812;2023-10-08T15:33:38;24.45;;;4.70;;
72205;SDS011;60111;48.286;7.812;2023-10-08T15:36:11;20.12;;;5.08;;
72205;SDS011;60111;48.286;7.812;2023-10-08T15:38:43;16.60;;;4.33;;
72205;SDS011;60111;48.286;7.812;2023-10-08T15:41:16;18.32;;;4.35;;
72205;SDS011;60111;48.286;7.812;2023-10-08T15:43:50;17.62;;;4.80;;
72205;SDS011;60111;48.286;7.812;2023-10-08T15:46:25;13.90;;;3.90;;
72205;SDS011;60111;48.286;7.812;2023-10-08T15:48:58;14.80;;;4.17;;
72205;SDS011;60111;48.286;7.812;2023-10-08T15:54:05;12.88;;;3.85;;
72205;SDS011;60111;48.286;7.812;2023-10-08T15:56:38;16.07;;;4.07;;
72205;SDS011;60111;48.286;7.812;2023-10-08T15:59:11;12.07;;;3.58;;
72205;SDS011;60111;48.286;7.812;2023-10-08T16:01:43;8.98;;;3.25;;
72205;SDS011;60111;48.286;7.812;2023-10-08T16:04:17;14.60;;;4.22;;
72205;SDS011;60111;48.286;7.812;2023-10-08T16:06:51;12.55;;;3.98;;
72205;SDS011;60111;48.286;7.812;2023-10-08T16:09:24;18.87;;;5.17;;
72205;SDS011;60111;48.286;7.812;2023-10-08T16:14:30;16.93;;;4.58;;
72205;SDS011;60111;48.286;7.812;2023-10-08T16:17:03;14.93;;;4.95;;
72205;SDS011;60111;48.286;7.812;2023-10-08T16:19:37;20.97;;;4.65;;
72205;SDS011;60111;48.286;7.812;2023-10-08T16:24:42;14.90;;;4.08;;
72205;SDS011;60111;48.286;7.812;2023-10-08T16:27:15;12.07;;;4.37;;
72205;SDS011;60111;48.286;7.812;2023-10-08T16:32:21;16.95;;;4.55;;
72205;SDS011;60111;48.286;7.812;2023-10-08T16:34:54;20.88;;;4.58;;
72205;SDS011;60111;48.286;7.812;2023-10-08T16:37:27;22.55;;;5.20;;